createdAt,value
2022-11-16T00:00:25.430Z,15.50
2022-11-16T00:02:55.046Z,14.05
2022-11-16T00:05:28.110Z,15.10
2022-11-16T00:07:56.989Z,14.77
2022-11-16T00:10:25.538Z,15.13
2022-11-16T00:12:53.930Z,13.00
2022-11-16T00:15:22.253Z,14.02
2022-11-16T00:17:50.752Z,13.80
2022-11-16T00:20:20.641Z,14.13
2022-11-16T00:22:48.957Z,14.93
2022-11-16T00:25:17.522Z,13.77
2022-11-16T00:27:45.862Z,14.23
2022-11-16T00:30:15.177Z,14.10
2022-11-16T00:32:44.073Z,14.48
2022-11-16T00:35:12.349Z,15.40
2022-11-16T00:37:41.957Z,14.95
2022-11-16T00:40:12.454Z,15.25
2022-11-16T00:42:40.804Z,14.10
2022-11-16T00:45:11.000Z,12.43
2022-11-16T00:47:39.348Z,11.07
2022-11-16T00:50:08.365Z,11.50
2022-11-16T00:52:36.718Z,11.30
2022-11-16T00:55:08.291Z,11.73
2022-11-16T00:57:37.683Z,11.88
2022-11-16T01:00:07.704Z,12.13
2022-11-16T01:02:36.590Z,11.70
2022-11-16T01:05:05.412Z,11.68
2022-11-16T01:07:33.818Z,11.30
2022-11-16T01:10:02.233Z,11.35
2022-11-16T01:12:32.095Z,11.15
2022-11-16T01:15:00.980Z,11.10
2022-11-16T01:17:30.084Z,11.20
2022-11-16T01:19:58.532Z,11.80
2022-11-16T01:22:26.953Z,11.30
2022-11-16T01:24:55.284Z,12.07
2022-11-16T01:27:23.645Z,11.32
2022-11-16T01:29:53.355Z,11.35
2022-11-16T01:32:22.015Z,11.10
2022-11-16T01:34:50.741Z,10.48
2022-11-16T01:37:28.286Z,10.57
2022-11-16T01:39:56.688Z,11.25
2022-11-16T01:42:31.112Z,11.32
2022-11-16T01:45:11.085Z,11.10
2022-11-16T01:47:39.409Z,11.38
2022-11-16T01:50:12.763Z,10.90
2022-11-16T01:52:54.721Z,11.43
2022-11-16T01:58:08.121Z,11.02
2022-11-16T02:00:40.174Z,10.88
2022-11-16T02:03:35.692Z,11.02
2022-11-16T02:06:32.543Z,11.18
2022-11-16T02:09:52.018Z,11.05
2022-11-16T02:15:16.770Z,11.50
2022-11-16T02:18:06.277Z,10.57
2022-11-16T02:20:56.789Z,9.98
2022-11-16T02:24:04.013Z,10.57
2022-11-16T02:27:02.157Z,9.25
2022-11-16T02:29:35.462Z,8.88
2022-11-16T02:32:11.126Z,7.88
2022-11-16T02:34:45.556Z,7.88
2022-11-16T02:37:18.890Z,7.47
2022-11-16T02:39:51.276Z,7.38
2022-11-16T02:42:27.369Z,6.15
2022-11-16T02:45:00.618Z,6.28
2022-11-16T02:47:34.245Z,6.50
2022-11-16T02:50:09.403Z,6.03
2022-11-16T02:52:39.019Z,6.55
2022-11-16T02:55:10.902Z,6.15
2022-11-16T02:57:53.006Z,6.50
2022-11-16T03:00:25.671Z,6.18
2022-11-16T03:03:09.481Z,5.78
2022-11-16T03:05:43.038Z,5.38
2022-11-16T03:08:20.285Z,6.03
2022-11-16T03:11:13.119Z,6.30
2022-11-16T03:13:43.319Z,7.22
2022-11-16T03:16:18.548Z,6.90
2022-11-16T03:18:48.628Z,6.90
2022-11-16T03:21:25.051Z,7.25
2022-11-16T03:23:53.366Z,7.38
2022-11-16T03:26:28.201Z,6.90
2022-11-16T03:29:02.788Z,7.07
2022-11-16T03:31:41.492Z,7.03
2022-11-16T03:34:17.760Z,6.60
2022-11-16T03:36:50.023Z,6.45
2022-11-16T03:39:25.198Z,6.40
2022-11-16T03:41:54.295Z,6.85
2022-11-16T03:44:23.420Z,7.45
2022-11-16T03:46:53.102Z,6.40
2022-11-16T03:49:23.430Z,7.03
2022-11-16T03:51:54.127Z,7.35
2022-11-16T03:54:22.968Z,6.63
2022-11-16T03:56:51.179Z,7.38
2022-11-16T03:59:19.843Z,7.15
2022-11-16T04:01:48.094Z,6.50
2022-11-16T04:04:32.119Z,7.35
2022-11-16T04:07:18.630Z,7.03
2022-11-16T04:10:04.692Z,6.80
2022-11-16T04:12:51.907Z,7.47
2022-11-16T04:15:37.794Z,7.43
2022-11-16T04:18:24.124Z,7.03
2022-11-16T04:21:11.249Z,7.07
2022-11-16T04:23:57.158Z,7.13
2022-11-16T04:26:56.058Z,6.97
2022-11-16T04:29:23.714Z,7.20
2022-11-16T04:32:09.727Z,7.55
2022-11-16T04:34:55.722Z,6.95
2022-11-16T04:37:43.284Z,7.07
2022-11-16T04:40:13.379Z,7.78
2022-11-16T04:42:41.630Z,7.75
2022-11-16T04:45:25.429Z,7.15
2022-11-16T04:47:55.252Z,7.38
2022-11-16T04:50:29.108Z,6.93
2022-11-16T04:53:00.509Z,7.00
2022-11-16T04:55:30.259Z,6.13
2022-11-16T04:57:59.925Z,6.30
2022-11-16T05:00:29.120Z,6.82
2022-11-16T05:03:01.295Z,7.20
2022-11-16T05:05:31.093Z,6.95
2022-11-16T05:08:02.105Z,6.50
2022-11-16T05:10:32.959Z,5.82
2022-11-16T05:13:01.291Z,6.30
2022-11-16T05:15:30.106Z,5.00
2022-11-16T05:18:00.004Z,5.40
2022-11-16T05:20:45.939Z,5.60
2022-11-16T05:23:30.488Z,5.15
2022-11-16T05:26:03.267Z,5.40
2022-11-16T05:28:31.728Z,5.43
2022-11-16T05:31:00.238Z,5.20
2022-11-16T05:33:30.425Z,4.95
2022-11-16T05:35:59.139Z,5.13
2022-11-16T05:38:29.044Z,5.00
2022-11-16T05:40:59.917Z,5.07
2022-11-16T05:43:30.651Z,5.57
2022-11-16T05:46:19.208Z,4.65
2022-11-16T05:48:47.494Z,5.28
2022-11-16T05:51:16.010Z,4.72
2022-11-16T05:53:45.986Z,4.82
2022-11-16T05:56:19.544Z,5.50
2022-11-16T05:58:48.251Z,5.25
2022-11-16T06:01:16.671Z,5.25
2022-11-16T06:03:45.061Z,4.93
2022-11-16T06:06:13.536Z,5.13
2022-11-16T06:08:43.254Z,5.13
2022-11-16T06:11:17.172Z,4.80
2022-11-16T06:13:46.840Z,4.80
2022-11-16T06:16:15.387Z,4.95
2022-11-16T06:18:46.798Z,4.72
2022-11-16T06:21:20.175Z,5.18
2022-11-16T06:23:49.073Z,5.45
2022-11-16T06:26:19.272Z,5.72
2022-11-16T06:28:48.491Z,5.55
2022-11-16T06:31:16.991Z,5.60
2022-11-16T06:33:46.817Z,5.40
2022-11-16T06:36:22.789Z,5.70
2022-11-16T06:38:51.923Z,4.90
2022-11-16T06:41:22.991Z,5.18
2022-11-16T06:43:52.284Z,6.43
2022-11-16T06:46:25.364Z,5.68
2022-11-16T06:51:23.134Z,5.85
2022-11-16T06:53:51.435Z,5.38
2022-11-16T06:56:22.453Z,5.18
2022-11-16T06:58:57.292Z,5.80
2022-11-16T07:01:27.605Z,5.63
2022-11-16T07:04:01.572Z,5.38
2022-11-16T07:06:31.103Z,6.00
2022-11-16T07:08:59.905Z,6.10
2022-11-16T07:11:33.294Z,5.68
2022-11-16T07:14:03.045Z,5.40
2022-11-16T07:16:31.757Z,5.70
2022-11-16T07:19:04.178Z,6.13
2022-11-16T07:21:35.089Z,5.93
2022-11-16T07:24:07.388Z,5.30
2022-11-16T07:26:37.529Z,5.93
2022-11-16T07:29:13.869Z,7.38
2022-11-16T07:31:46.600Z,6.40
2022-11-16T07:34:46.954Z,5.97
2022-11-16T07:37:17.624Z,6.18
2022-11-16T07:39:46.265Z,6.28
2022-11-16T07:42:16.432Z,6.32
2022-11-16T07:44:52.544Z,6.65
2022-11-16T07:47:20.852Z,5.85
2022-11-16T07:49:49.648Z,6.57
2022-11-16T07:52:22.883Z,5.93
2022-11-16T07:54:58.359Z,6.32
2022-11-16T07:57:30.402Z,5.80
2022-11-16T08:00:02.287Z,6.65
2022-11-16T08:02:41.725Z,6.05
2022-11-16T08:05:17.238Z,5.65
2022-11-16T08:07:45.930Z,7.22
2022-11-16T08:10:14.746Z,5.90
2022-11-16T08:12:44.460Z,6.03
2022-11-16T08:15:14.219Z,6.37
2022-11-16T08:17:42.908Z,5.88
2022-11-16T08:22:42.602Z,5.97
2022-11-16T08:25:11.444Z,5.55
2022-11-16T08:27:45.756Z,6.10
2022-11-16T08:30:15.425Z,5.85
2022-11-16T08:32:45.993Z,6.28
2022-11-16T08:35:16.084Z,5.93
2022-11-16T08:37:45.998Z,6.10
2022-11-16T08:40:15.098Z,5.10
2022-11-16T08:42:45.917Z,4.95
2022-11-16T08:45:15.311Z,6.50
2022-11-16T08:47:43.864Z,5.45
2022-11-16T08:50:12.297Z,5.43
2022-11-16T08:52:40.869Z,6.10
2022-11-16T08:55:10.264Z,6.10
2022-11-16T08:57:39.555Z,5.90
2022-11-16T09:00:14.139Z,5.35
2022-11-16T09:02:42.503Z,5.40
2022-11-16T09:05:12.097Z,5.90
2022-11-16T09:07:40.755Z,5.43
2022-11-16T09:10:11.010Z,5.18
2022-11-16T09:12:39.838Z,5.68
2022-11-16T09:15:09.809Z,5.70
2022-11-16T09:17:39.580Z,5.75
2022-11-16T09:20:09.669Z,5.33
2022-11-16T09:22:38.024Z,5.05
2022-11-16T09:25:08.158Z,5.10
2022-11-16T09:27:36.507Z,6.05
2022-11-16T09:30:06.640Z,5.15
2022-11-16T09:32:35.049Z,5.35
2022-11-16T09:35:04.810Z,6.05
2022-11-16T09:37:33.108Z,5.37
2022-11-16T09:40:01.521Z,5.57
2022-11-16T09:42:52.530Z,5.53
2022-11-16T09:45:26.523Z,5.68
2022-11-16T09:48:01.482Z,5.45
2022-11-16T09:50:42.666Z,5.90
2022-11-16T09:53:24.960Z,6.20
2022-11-16T09:55:55.846Z,5.22
2022-11-16T09:58:31.524Z,5.50
2022-11-16T10:01:07.518Z,5.60
2022-11-16T10:03:43.951Z,6.38
2022-11-16T10:06:22.502Z,6.20
2022-11-16T10:08:53.150Z,5.93
2022-11-16T10:11:46.343Z,5.65
2022-11-16T10:14:44.645Z,5.78
2022-11-16T10:17:27.147Z,5.93
2022-11-16T10:20:13.777Z,6.30
2022-11-16T10:22:51.052Z,6.22
2022-11-16T10:25:24.232Z,6.13
2022-11-16T10:28:48.249Z,5.57
2022-11-16T10:31:24.769Z,5.80
2022-11-16T10:33:58.064Z,6.07
2022-11-16T10:36:28.725Z,5.80
2022-11-16T10:39:02.515Z,6.35
2022-11-16T10:41:37.161Z,6.35
2022-11-16T10:44:18.020Z,6.00
2022-11-16T10:49:29.250Z,6.30
2022-11-16T10:51:57.783Z,6.50
2022-11-16T10:54:27.453Z,6.63
2022-11-16T10:57:04.307Z,6.88
2022-11-16T10:59:44.232Z,6.88
2022-11-16T11:02:32.340Z,6.50
2022-11-16T11:05:15.496Z,6.95
2022-11-16T11:07:48.026Z,6.97
2022-11-16T11:10:30.770Z,7.03
2022-11-16T11:13:24.283Z,7.28
2022-11-16T11:15:54.701Z,7.05
2022-11-16T11:18:30.082Z,6.30
2022-11-16T11:21:19.875Z,6.32
2022-11-16T11:23:52.398Z,7.60
2022-11-16T11:26:36.856Z,7.05
2022-11-16T11:29:21.314Z,6.70
2022-11-16T11:31:52.730Z,7.15
2022-11-16T11:34:23.826Z,7.10
2022-11-16T11:36:55.464Z,7.10
2022-11-16T11:39:41.600Z,7.18
2022-11-16T11:42:24.999Z,7.07
2022-11-16T11:44:58.587Z,7.95
2022-11-16T11:48:00.366Z,7.15
2022-11-16T11:50:44.320Z,7.30
2022-11-16T11:53:25.368Z,8.23
2022-11-16T11:55:58.550Z,8.20
2022-11-16T11:58:33.101Z,8.23
2022-11-16T12:01:25.969Z,7.80
2022-11-16T12:04:28.989Z,7.93
2022-11-16T12:07:07.233Z,7.75
2022-11-16T12:09:44.550Z,7.65
2022-11-16T12:12:33.981Z,7.90
2022-11-16T12:15:26.146Z,8.07
2022-11-16T12:18:07.853Z,9.88
2022-11-16T12:20:45.961Z,8.73
2022-11-16T12:23:53.633Z,9.18
2022-11-16T12:26:32.815Z,9.40
2022-11-16T12:29:19.689Z,8.60
2022-11-16T12:32:25.428Z,8.82
2022-11-16T12:35:14.725Z,8.63
2022-11-16T12:37:51.528Z,7.95
2022-11-16T12:40:38.732Z,8.68
2022-11-16T12:43:18.047Z,8.23
2022-11-16T12:46:01.785Z,9.05
2022-11-16T12:49:14.227Z,8.27
2022-11-16T12:51:57.071Z,7.88
2022-11-16T12:55:18.979Z,7.32
2022-11-16T12:57:48.196Z,7.55
2022-11-16T13:00:18.314Z,6.85
2022-11-16T13:03:03.088Z,6.60
2022-11-16T13:05:51.082Z,6.85
2022-11-16T13:08:33.980Z,6.82
2022-11-16T13:11:09.534Z,7.18
2022-11-16T13:13:40.163Z,5.90
2022-11-16T13:16:09.184Z,7.28
2022-11-16T13:18:44.043Z,6.40
2022-11-16T13:21:23.355Z,6.20
2022-11-16T13:24:07.505Z,7.10
2022-11-16T13:26:45.125Z,6.32
2022-11-16T13:29:27.290Z,6.25
2022-11-16T13:32:01.606Z,6.13
2022-11-16T13:34:34.193Z,5.40
2022-11-16T13:37:45.934Z,6.30
2022-11-16T13:40:27.721Z,6.35
2022-11-16T13:43:20.632Z,5.68
2022-11-16T13:45:58.431Z,5.30
2022-11-16T13:48:33.740Z,6.10
2022-11-16T13:51:04.297Z,5.72
2022-11-16T13:54:37.924Z,5.47
2022-11-16T13:56:29.271Z,5.55
2022-11-16T13:58:59.466Z,5.70
2022-11-16T14:02:00.081Z,5.82
2022-11-16T14:04:57.137Z,6.40
2022-11-16T14:07:44.956Z,6.35
2022-11-16T14:10:54.610Z,5.88
2022-11-16T14:13:42.347Z,6.57
2022-11-16T14:16:47.640Z,5.28
2022-11-16T14:19:56.001Z,6.10
2022-11-16T14:22:46.838Z,5.82
2022-11-16T14:28:14.530Z,5.43
2022-11-16T14:30:55.136Z,5.50
2022-11-16T14:33:34.299Z,5.50
2022-11-16T14:36:07.500Z,5.60
2022-11-16T14:38:39.085Z,5.47
2022-11-16T14:41:14.481Z,5.82
2022-11-16T14:43:45.955Z,5.47
2022-11-16T14:46:23.685Z,5.75
2022-11-16T14:48:52.354Z,5.18
2022-11-16T14:51:26.210Z,5.00
2022-11-16T14:54:00.943Z,5.60
2022-11-16T14:56:29.250Z,5.38
2022-11-16T14:59:02.004Z,5.82
2022-11-16T15:01:33.219Z,5.65
2022-11-16T15:04:05.228Z,5.53
2022-11-16T15:06:42.234Z,5.05
2022-11-16T15:09:19.276Z,5.13
2022-11-16T15:12:10.825Z,4.40
2022-11-16T15:14:46.887Z,5.20
2022-11-16T15:17:19.487Z,5.18
2022-11-16T15:19:56.386Z,5.53
2022-11-16T15:22:28.434Z,4.82
2022-11-16T15:24:58.914Z,5.88
2022-11-16T15:27:38.467Z,5.72
2022-11-16T15:30:18.600Z,5.72
2022-11-16T15:32:49.568Z,4.95
2022-11-16T15:35:23.073Z,5.05
2022-11-16T15:38:04.457Z,5.25
2022-11-16T15:40:33.798Z,5.28
2022-11-16T15:43:05.766Z,5.43
2022-11-16T15:45:36.554Z,5.78
2022-11-16T15:48:05.896Z,5.78
2022-11-16T15:50:34.457Z,6.07
2022-11-16T15:53:04.137Z,5.32
2022-11-16T15:55:37.769Z,5.20
2022-11-16T15:58:14.812Z,5.75
2022-11-16T16:00:43.879Z,5.53
2022-11-16T16:03:23.216Z,5.78
2022-11-16T16:05:52.429Z,5.68
2022-11-16T16:08:31.255Z,5.90
2022-11-16T16:11:07.035Z,5.68
2022-11-16T16:13:38.211Z,5.78
2022-11-16T16:16:36.312Z,5.38
2022-11-16T16:19:09.979Z,5.93
2022-11-16T16:21:44.691Z,5.90
2022-11-16T16:24:41.148Z,5.82
2022-11-16T16:27:28.638Z,5.43
2022-11-16T16:29:58.861Z,5.50
2022-11-16T16:32:29.301Z,6.00
2022-11-16T16:34:59.560Z,5.40
2022-11-16T16:37:30.450Z,5.88
2022-11-16T16:40:00.573Z,5.53
2022-11-16T16:42:29.149Z,5.28
2022-11-16T16:45:02.157Z,5.47
2022-11-16T16:47:30.625Z,5.47
2022-11-16T16:49:59.047Z,6.20
2022-11-16T16:52:27.724Z,5.53
2022-11-16T16:54:55.966Z,5.43
2022-11-16T16:57:25.756Z,5.78
2022-11-16T16:59:54.190Z,5.68
2022-11-16T17:02:22.431Z,5.70
2022-11-16T17:04:50.724Z,5.80
2022-11-16T17:07:19.185Z,5.90
2022-11-16T17:09:47.440Z,5.78
2022-11-16T17:12:15.782Z,6.05
2022-11-16T17:14:51.385Z,5.30
2022-11-16T17:17:20.286Z,5.72
2022-11-16T17:19:48.639Z,5.75
2022-11-16T17:22:17.202Z,5.78
2022-11-16T17:24:45.459Z,5.72
2022-11-16T17:27:14.080Z,6.10
2022-11-16T17:29:42.427Z,5.80
2022-11-16T17:32:12.267Z,5.80
2022-11-16T17:34:41.479Z,5.85
2022-11-16T17:37:09.943Z,6.03
2022-11-16T17:39:38.278Z,5.88
2022-11-16T17:42:06.628Z,6.03
2022-11-16T17:44:36.996Z,6.18
2022-11-16T17:47:05.421Z,6.25
2022-11-16T17:49:35.053Z,6.47
2022-11-16T17:52:04.909Z,5.60
2022-11-16T17:54:33.407Z,6.47
2022-11-16T17:57:01.708Z,6.20
2022-11-16T17:59:30.245Z,5.53
2022-11-16T18:01:58.699Z,5.53
2022-11-16T18:04:27.007Z,6.10
2022-11-16T18:06:57.154Z,6.00
2022-11-16T18:09:25.500Z,6.82
2022-11-16T18:11:53.741Z,5.97
2022-11-16T18:14:22.327Z,5.57
2022-11-16T18:16:50.681Z,5.78
2022-11-16T18:19:20.739Z,6.13
2022-11-16T18:21:49.497Z,6.22
2022-11-16T18:24:19.205Z,6.30
2022-11-16T18:26:47.491Z,6.00
2022-11-16T18:29:18.725Z,6.72
2022-11-16T18:31:47.023Z,5.88
2022-11-16T18:34:15.949Z,6.72
2022-11-16T18:36:44.300Z,6.45
2022-11-16T18:39:12.693Z,6.50
2022-11-16T18:41:51.733Z,5.68
2022-11-16T18:44:22.745Z,6.10
2022-11-16T18:46:51.120Z,6.28
2022-11-16T18:49:19.442Z,6.10
2022-11-16T18:51:47.714Z,6.22
2022-11-16T18:54:16.179Z,6.13
2022-11-16T18:56:45.785Z,5.97
2022-11-16T18:59:14.245Z,6.68
2022-11-16T19:01:42.473Z,5.75
2022-11-16T19:04:12.344Z,5.60
2022-11-16T19:06:40.753Z,6.05
2022-11-16T19:09:09.762Z,5.57
2022-11-16T19:11:38.202Z,5.63
2022-11-16T19:14:08.501Z,5.35
2022-11-16T19:16:37.105Z,5.57
2022-11-16T19:19:06.078Z,6.10
2022-11-16T19:21:34.350Z,5.85
2022-11-16T19:24:02.555Z,6.00
2022-11-16T19:26:30.843Z,5.47
2022-11-16T19:29:01.665Z,5.50
2022-11-16T19:31:33.779Z,5.72
2022-11-16T19:34:05.212Z,5.75
2022-11-16T19:36:35.590Z,5.57
2022-11-16T19:39:05.013Z,6.07
2022-11-16T19:41:33.467Z,5.10
2022-11-16T19:44:03.085Z,5.53
2022-11-16T19:46:34.519Z,5.28
2022-11-16T19:49:03.582Z,5.32
2022-11-16T19:51:33.774Z,5.50
2022-11-16T19:54:03.460Z,5.30
2022-11-16T19:56:32.197Z,5.82
2022-11-16T19:59:00.650Z,5.38
2022-11-16T20:01:29.959Z,5.32
2022-11-16T20:04:03.378Z,5.30
2022-11-16T20:06:34.558Z,5.35
2022-11-16T20:09:08.728Z,5.07
2022-11-16T20:11:40.124Z,5.70
2022-11-16T20:14:12.173Z,4.97
2022-11-16T20:16:43.066Z,4.72
2022-11-16T20:19:13.006Z,5.38
2022-11-16T20:21:43.097Z,5.10
2022-11-16T20:24:14.434Z,5.60
2022-11-16T20:26:45.246Z,5.55
2022-11-16T20:31:42.925Z,5.18
2022-11-16T20:34:15.752Z,5.65
2022-11-16T20:36:46.979Z,6.13
2022-11-16T20:39:16.928Z,5.18
2022-11-16T20:41:45.978Z,5.20
2022-11-16T20:44:18.523Z,5.50
2022-11-16T20:46:47.135Z,5.70
2022-11-16T20:49:16.772Z,5.32
2022-11-16T20:51:46.954Z,5.22
2022-11-16T20:54:15.325Z,5.53
2022-11-16T20:56:44.445Z,6.10
2022-11-16T20:59:12.892Z,4.72
2022-11-16T21:01:44.699Z,5.32
2022-11-16T21:04:13.062Z,5.43
2022-11-16T21:06:42.755Z,5.57
2022-11-16T21:09:13.040Z,5.60
2022-11-16T21:11:55.213Z,5.03
2022-11-16T21:14:24.716Z,5.63
2022-11-16T21:16:52.989Z,5.38
2022-11-16T21:19:21.483Z,5.63
2022-11-16T21:21:51.070Z,5.75
2022-11-16T21:24:19.444Z,6.18
2022-11-16T21:26:47.635Z,5.70
2022-11-16T21:29:16.095Z,5.63
2022-11-16T21:31:44.387Z,5.63
2022-11-16T21:34:12.611Z,5.68
2022-11-16T21:36:41.041Z,5.32
2022-11-16T21:39:10.654Z,5.80
2022-11-16T21:41:39.018Z,6.40
2022-11-16T21:44:07.277Z,5.78
2022-11-16T21:46:35.535Z,6.25
2022-11-16T21:49:03.727Z,5.65
2022-11-16T21:51:32.065Z,5.22
2022-11-16T21:54:00.323Z,6.20
2022-11-16T21:56:29.995Z,6.40
2022-11-16T21:58:58.502Z,5.70
2022-11-16T22:01:46.776Z,5.75
2022-11-16T22:04:32.510Z,6.10
2022-11-16T22:07:18.463Z,6.05
2022-11-16T22:09:46.889Z,5.97
2022-11-16T22:12:16.572Z,6.35
2022-11-16T22:14:44.823Z,5.63
2022-11-16T22:17:13.147Z,6.13
2022-11-16T22:19:41.514Z,6.47
2022-11-16T22:22:09.739Z,6.75
2022-11-16T22:24:38.129Z,6.55
2022-11-16T22:27:06.362Z,6.40
2022-11-16T22:29:36.004Z,6.22
2022-11-16T22:32:04.557Z,6.13
2022-11-16T22:34:32.833Z,7.00
2022-11-16T22:37:01.302Z,6.35
2022-11-16T22:39:29.831Z,7.43
2022-11-16T22:41:58.140Z,6.70
2022-11-16T22:44:26.334Z,6.53
2022-11-16T22:46:55.990Z,7.18
2022-11-16T22:49:24.919Z,7.45
2022-11-16T22:51:53.425Z,7.20
2022-11-16T22:54:27.377Z,6.88
2022-11-16T22:56:56.904Z,6.88
2022-11-16T22:59:25.291Z,7.25
2022-11-16T23:01:54.950Z,7.05
2022-11-16T23:04:23.277Z,6.50
2022-11-16T23:06:51.527Z,6.90
2022-11-16T23:09:19.820Z,7.07
2022-11-16T23:12:05.921Z,6.95
2022-11-16T23:14:51.545Z,6.55
2022-11-16T23:17:21.233Z,7.32
2022-11-16T23:20:06.847Z,6.25
2022-11-16T23:22:52.442Z,7.60
2022-11-16T23:25:38.221Z,7.68
2022-11-16T23:28:09.025Z,6.68
2022-11-16T23:30:38.030Z,7.53
2022-11-16T23:33:07.831Z,7.45
2022-11-16T23:35:36.278Z,7.57
2022-11-16T23:38:07.581Z,7.75
2022-11-16T23:40:38.340Z,7.68
2022-11-16T23:45:52.864Z,8.27
2022-11-16T23:48:22.454Z,7.35
2022-11-16T23:50:50.918Z,6.93
2022-11-16T23:53:19.166Z,7.00
2022-11-16T23:55:47.562Z,6.75
2022-11-16T23:58:16.480Z,6.80
